createdAt,value
2018-07-20T00:00:23.717Z,58.11
2018-07-20T00:02:52.825Z,59.15
2018-07-20T00:05:21.921Z,58.17
2018-07-20T00:07:51.017Z,57.45
2018-07-20T00:10:20.102Z,58.61
2018-07-20T00:12:49.193Z,58.49
2018-07-20T00:15:18.289Z,58.83
2018-07-20T00:17:47.381Z,58.36
2018-07-20T00:20:16.485Z,58.34
2018-07-20T00:22:45.577Z,59.72
2018-07-20T00:25:14.666Z,58.53
2018-07-20T00:27:43.807Z,59.64
2018-07-20T00:30:12.893Z,59.05
2018-07-20T00:32:42.139Z,58.27
2018-07-20T00:35:11.254Z,59.81
2018-07-20T00:37:40.353Z,58.64
2018-07-20T00:40:09.469Z,59.59
2018-07-20T00:42:38.553Z,60.03
2018-07-20T00:45:07.932Z,59.52
2018-07-20T00:47:37.021Z,59.44
2018-07-20T00:50:06.878Z,59.21
2018-07-20T00:52:35.965Z,60.09
2018-07-20T00:55:05.137Z,59.99
2018-07-20T00:57:34.236Z,61.33
2018-07-20T01:00:03.377Z,61.41
2018-07-20T01:02:32.469Z,60.94
2018-07-20T01:05:01.553Z,61.58
2018-07-20T01:07:30.651Z,61.14
2018-07-20T01:09:59.738Z,62.10
2018-07-20T01:12:28.825Z,61.67
2018-07-20T01:14:57.929Z,62.33
2018-07-20T01:17:27.065Z,62.65
2018-07-20T01:19:56.181Z,61.52
2018-07-20T01:22:25.285Z,61.54
2018-07-20T01:24:54.385Z,62.16
2018-07-20T01:27:23.477Z,62.80
2018-07-20T01:29:52.573Z,62.77
2018-07-20T01:32:21.674Z,62.97
2018-07-20T01:34:50.790Z,63.48
2018-07-20T01:37:19.933Z,63.92
2018-07-20T01:39:49.013Z,63.56
2018-07-20T01:42:18.394Z,63.21
2018-07-20T01:44:47.502Z,62.97
2018-07-20T01:47:16.637Z,63.43
2018-07-20T01:49:45.713Z,62.90
2018-07-20T01:52:14.812Z,64.28
2018-07-20T01:54:43.921Z,63.88
2018-07-20T01:57:13.005Z,65.02
2018-07-20T01:59:42.125Z,63.86
2018-07-20T02:02:11.221Z,64.48
2018-07-20T02:04:40.313Z,65.18
2018-07-20T02:07:09.417Z,64.77
2018-07-20T02:09:39.355Z,65.06
2018-07-20T02:12:08.477Z,65.06
2018-07-20T02:14:37.557Z,65.74
2018-07-20T02:17:06.641Z,65.41
2018-07-20T02:19:35.739Z,65.10
2018-07-20T02:22:04.853Z,65.29
2018-07-20T02:24:34.196Z,64.68
2018-07-20T02:27:03.493Z,66.37
2018-07-20T02:29:32.600Z,65.26
2018-07-20T02:32:01.674Z,65.01
2018-07-20T02:34:30.765Z,65.49
2018-07-20T02:37:00.930Z,65.31
2018-07-20T02:39:30.030Z,64.83
2018-07-20T02:41:59.122Z,65.83
2018-07-20T02:44:28.210Z,65.83
2018-07-20T02:46:57.290Z,66.32
2018-07-20T02:49:26.400Z,66.01
2018-07-20T02:51:55.493Z,66.10
2018-07-20T02:54:24.574Z,66.97
2018-07-20T02:56:53.685Z,67.49
2018-07-20T02:59:22.805Z,66.71
2018-07-20T03:01:51.913Z,68.34
2018-07-20T03:04:21.009Z,67.58
2018-07-20T03:06:50.097Z,67.21
2018-07-20T03:09:19.450Z,68.10
2018-07-20T03:11:48.546Z,68.12
2018-07-20T03:14:17.713Z,67.62
2018-07-20T03:16:46.794Z,68.01
2018-07-20T03:19:15.890Z,67.26
2018-07-20T03:21:44.990Z,67.08
2018-07-20T03:24:14.081Z,67.93
2018-07-20T03:26:43.217Z,69.00
2018-07-20T03:29:12.301Z,67.42
2018-07-20T03:31:41.521Z,68.01
2018-07-20T03:34:10.613Z,67.33
2018-07-20T03:36:39.717Z,65.87
2018-07-20T03:39:09.735Z,67.01
2018-07-20T03:41:39.200Z,67.13
2018-07-20T03:44:08.729Z,67.30
2018-07-20T03:46:37.905Z,66.73
2018-07-20T03:49:07.069Z,66.53
2018-07-20T03:51:36.105Z,66.44
2018-07-20T03:54:05.229Z,66.25
2018-07-20T03:56:34.320Z,68.16
2018-07-20T03:59:03.427Z,67.93
2018-07-20T04:01:32.521Z,67.44
2018-07-20T04:04:01.617Z,67.11
2018-07-20T04:06:30.705Z,67.57
2018-07-20T04:08:59.819Z,67.90
2018-07-20T04:11:28.914Z,67.63
2018-07-20T04:13:58.007Z,68.45
2018-07-20T04:16:27.119Z,68.62
2018-07-20T04:18:56.237Z,67.96
2018-07-20T04:21:25.669Z,67.92
2018-07-20T04:23:54.765Z,67.72
2018-07-20T04:26:23.868Z,67.78
2018-07-20T04:28:52.964Z,68.61
2018-07-20T04:31:22.054Z,68.23
2018-07-20T04:33:51.157Z,68.87
2018-07-20T04:36:20.314Z,69.40
2018-07-20T04:38:49.477Z,68.77
2018-07-20T04:41:18.729Z,68.34
2018-07-20T04:43:47.870Z,68.97
2018-07-20T04:46:17.005Z,69.51
2018-07-20T04:48:46.093Z,68.85
2018-07-20T04:51:15.197Z,68.67
2018-07-20T04:53:44.281Z,69.01
2018-07-20T04:56:13.428Z,69.67
2018-07-20T04:58:42.588Z,69.83
2018-07-20T05:01:11.625Z,68.56
2018-07-20T05:03:40.751Z,68.44
2018-07-20T05:06:09.819Z,69.76
2018-07-20T05:08:38.917Z,68.95
2018-07-20T05:11:08.031Z,68.98
2018-07-20T05:13:37.125Z,69.69
2018-07-20T05:16:06.261Z,69.39
2018-07-20T05:18:35.350Z,68.76
2018-07-20T05:21:04.433Z,67.98
2018-07-20T05:23:33.558Z,68.12
2018-07-20T05:26:02.661Z,68.45
2018-07-20T05:28:31.825Z,68.22
2018-07-20T05:31:00.989Z,68.68
2018-07-20T05:33:30.080Z,68.55
2018-07-20T05:35:59.192Z,68.26
2018-07-20T05:38:28.333Z,69.36
2018-07-20T05:40:57.421Z,68.69
2018-07-20T05:43:26.539Z,69.24
2018-07-20T05:45:55.613Z,68.80
2018-07-20T05:48:24.749Z,68.13
2018-07-20T05:50:53.854Z,68.30
2018-07-20T05:53:22.982Z,67.74
2018-07-20T05:55:52.059Z,68.74
2018-07-20T05:58:21.201Z,68.69
2018-07-20T06:00:50.347Z,68.82
2018-07-20T06:03:19.490Z,68.41
2018-07-20T06:05:48.597Z,68.16
2018-07-20T06:08:17.698Z,68.00
2018-07-20T06:10:46.819Z,67.26
2018-07-20T06:13:15.905Z,66.60
2018-07-20T06:15:45.018Z,67.07
2018-07-20T06:18:14.113Z,67.77
2018-07-20T06:20:43.241Z,66.15
2018-07-20T06:23:12.374Z,65.90
2018-07-20T06:25:41.509Z,66.45
2018-07-20T06:28:10.618Z,65.83
2018-07-20T06:30:39.734Z,65.38
2018-07-20T06:33:08.844Z,66.56
2018-07-20T06:35:37.973Z,65.57
2018-07-20T06:38:07.516Z,66.03
2018-07-20T06:40:36.764Z,65.88
2018-07-20T06:43:05.827Z,66.01
2018-07-20T06:45:34.953Z,66.53
2018-07-20T06:48:04.039Z,65.40
2018-07-20T06:50:33.137Z,64.00
2018-07-20T06:53:02.253Z,64.88
2018-07-20T06:55:31.389Z,65.39
2018-07-20T06:58:00.495Z,64.04
2018-07-20T07:00:29.600Z,64.70
2018-07-20T07:02:58.698Z,64.42
2018-07-20T07:05:27.824Z,63.81
2018-07-20T07:07:56.921Z,63.25
2018-07-20T07:10:26.026Z,61.84
2018-07-20T07:12:55.581Z,59.10
2018-07-20T07:15:24.703Z,56.45
2018-07-20T07:17:53.793Z,56.80
2018-07-20T07:20:23.018Z,55.76
2018-07-20T07:22:52.182Z,56.25
2018-07-20T07:25:21.310Z,57.75
2018-07-20T07:27:50.407Z,57.72
2018-07-20T07:30:19.525Z,57.34
2018-07-20T07:32:48.633Z,57.33
2018-07-20T07:35:17.745Z,57.68
2018-07-20T07:37:46.861Z,54.44
2018-07-20T07:40:16.034Z,53.65
2018-07-20T07:42:45.124Z,54.39
2018-07-20T07:45:14.271Z,54.80
2018-07-20T07:47:43.349Z,54.28
2018-07-20T07:50:12.465Z,55.90
2018-07-20T07:52:41.613Z,50.48
2018-07-20T07:55:10.717Z,50.47
2018-07-20T07:57:39.799Z,53.35
2018-07-20T08:00:08.909Z,52.35
2018-07-20T08:02:38.014Z,48.44
2018-07-20T08:05:07.353Z,47.05
2018-07-20T08:07:36.513Z,47.03
2018-07-20T08:10:05.833Z,45.71
2018-07-20T08:12:34.801Z,47.91
2018-07-20T08:15:03.990Z,47.57
2018-07-20T08:17:33.149Z,49.66
2018-07-20T08:20:02.276Z,47.72
2018-07-20T08:22:31.409Z,48.17
2018-07-20T08:25:00.517Z,48.48
2018-07-20T08:27:29.657Z,46.32
2018-07-20T08:29:58.765Z,43.68
2018-07-20T08:32:27.901Z,45.20
2018-07-20T08:34:57.016Z,42.72
2018-07-20T08:37:26.150Z,42.43
2018-07-20T08:39:55.513Z,40.24
2018-07-20T08:42:24.837Z,39.06
2018-07-20T08:44:53.984Z,36.85
2018-07-20T08:47:23.097Z,36.10
2018-07-20T08:49:52.216Z,37.67
2018-07-20T08:52:21.326Z,37.82
2018-07-20T08:54:50.477Z,38.03
2018-07-20T08:57:19.601Z,35.59
2018-07-20T08:59:48.826Z,34.00
2018-07-20T09:02:17.919Z,33.59
2018-07-20T09:04:47.041Z,34.97
2018-07-20T09:07:16.192Z,35.79
2018-07-20T09:09:45.284Z,38.03
2018-07-20T09:12:14.486Z,35.61
2018-07-20T09:14:43.685Z,32.87
2018-07-20T09:17:12.829Z,32.51
2018-07-20T09:19:41.945Z,32.59
2018-07-20T09:22:11.029Z,30.14
2018-07-20T09:24:40.172Z,32.70
2018-07-20T09:27:09.317Z,30.68
2018-07-20T09:29:38.432Z,30.18
2018-07-20T09:32:07.537Z,31.61
2018-07-20T09:34:36.624Z,29.76
2018-07-20T09:37:05.973Z,28.56
2018-07-20T09:39:35.057Z,29.55
2018-07-20T09:42:04.185Z,31.29
2018-07-20T09:44:33.281Z,30.92
2018-07-20T09:47:02.369Z,30.84
2018-07-20T09:49:31.481Z,30.38
2018-07-20T09:52:00.577Z,30.36
2018-07-20T09:54:29.676Z,28.70
2018-07-20T09:56:58.786Z,30.19
2018-07-20T09:59:27.872Z,29.45
2018-07-20T10:01:57.058Z,29.47
2018-07-20T10:04:26.177Z,30.79
2018-07-20T10:06:55.318Z,29.74
2018-07-20T10:09:24.407Z,28.61
2018-07-20T10:11:53.515Z,27.97
2018-07-20T10:14:22.606Z,27.57
2018-07-20T10:16:51.713Z,28.29
2018-07-20T10:19:20.855Z,27.16
2018-07-20T10:21:49.949Z,27.44
2018-07-20T10:24:19.097Z,26.75
2018-07-20T10:26:48.200Z,27.86
2018-07-20T10:29:17.286Z,27.57
2018-07-20T10:31:46.386Z,28.10
2018-07-20T10:34:15.485Z,28.56
2018-07-20T10:36:44.678Z,28.58
2018-07-20T10:39:13.721Z,29.40
2018-07-20T10:41:42.821Z,29.35
2018-07-20T10:44:11.936Z,27.72
2018-07-20T10:46:41.026Z,29.10
2018-07-20T10:49:10.186Z,27.38
2018-07-20T10:51:39.304Z,28.28
2018-07-20T10:54:08.434Z,29.02
2018-07-20T10:56:37.549Z,27.81
2018-07-20T10:59:06.657Z,27.44
2018-07-20T11:01:35.883Z,28.05
2018-07-20T11:04:04.949Z,28.87
2018-07-20T11:06:34.365Z,27.82
2018-07-20T11:09:03.974Z,28.63
2018-07-20T11:11:33.065Z,27.26
2018-07-20T11:14:02.215Z,26.85
2018-07-20T11:16:31.297Z,26.70
2018-07-20T11:19:00.441Z,26.92
2018-07-20T11:21:29.533Z,26.89
2018-07-20T11:23:58.632Z,27.90
2018-07-20T11:26:27.705Z,26.95
2018-07-20T11:28:56.793Z,27.60
2018-07-20T11:31:25.901Z,27.62
2018-07-20T11:33:54.986Z,28.15
2018-07-20T11:36:24.141Z,26.89
2018-07-20T11:38:53.309Z,27.51
2018-07-20T11:41:22.400Z,26.58
2018-07-20T11:43:51.508Z,26.78
2018-07-20T11:46:20.605Z,27.23
2018-07-20T11:48:49.833Z,26.74
2018-07-20T11:51:18.925Z,27.63
2018-07-20T11:53:48.129Z,26.42
2018-07-20T11:56:17.216Z,27.48
2018-07-20T11:58:46.357Z,27.34
2018-07-20T12:01:15.475Z,27.92
2018-07-20T12:03:44.609Z,28.32
2018-07-20T12:06:13.721Z,26.98
2018-07-20T12:08:42.865Z,27.31
2018-07-20T12:11:12.006Z,27.56
2018-07-20T12:13:41.221Z,27.20
2018-07-20T12:16:10.313Z,28.38
2018-07-20T12:18:39.442Z,30.16
2018-07-20T12:21:08.542Z,29.17
2018-07-20T12:23:37.632Z,30.20
2018-07-20T12:26:06.769Z,29.47
2018-07-20T12:28:36.913Z,31.25
2018-07-20T12:31:06.015Z,29.37
2018-07-20T12:33:35.109Z,30.67
2018-07-20T12:36:04.257Z,31.08
2018-07-20T12:38:33.355Z,31.61
2018-07-20T12:41:02.432Z,30.85
2018-07-20T12:43:31.530Z,31.28
2018-07-20T12:46:00.681Z,30.86
2018-07-20T12:48:29.765Z,31.24
2018-07-20T12:50:58.867Z,29.44
2018-07-20T12:53:27.988Z,29.52
2018-07-20T12:55:57.113Z,28.79
2018-07-20T12:58:26.312Z,32.06
2018-07-20T13:00:55.376Z,29.23
2018-07-20T13:03:24.461Z,29.59
2018-07-20T13:05:53.854Z,28.98
2018-07-20T13:08:23.153Z,29.06
2018-07-20T13:10:52.458Z,29.85
2018-07-20T13:13:21.658Z,28.18
2018-07-20T13:15:50.757Z,29.69
2018-07-20T13:18:19.942Z,28.88
2018-07-20T13:20:49.085Z,29.78
2018-07-20T13:23:18.192Z,29.70
2018-07-20T13:25:47.281Z,29.54
2018-07-20T13:28:16.362Z,29.67
2018-07-20T13:30:45.454Z,30.35
2018-07-20T13:33:15.062Z,28.22
2018-07-20T13:35:45.061Z,29.40
2018-07-20T13:38:15.781Z,27.76
2018-07-20T13:40:44.910Z,27.14
2018-07-20T13:43:14.109Z,28.19
2018-07-20T13:45:43.246Z,27.89
2018-07-20T13:48:12.325Z,27.61
2018-07-20T13:50:41.429Z,27.45
2018-07-20T13:53:10.548Z,27.18
2018-07-20T13:55:39.653Z,26.56
2018-07-20T13:58:08.729Z,27.12
2018-07-20T14:00:37.837Z,28.18
2018-07-20T14:03:06.969Z,27.24
2018-07-20T14:05:36.137Z,26.85
2018-07-20T14:08:05.258Z,26.74
2018-07-20T14:10:34.539Z,26.61
2018-07-20T14:13:03.659Z,26.55
2018-07-20T14:15:32.781Z,26.20
2018-07-20T14:18:01.872Z,26.82
2018-07-20T14:20:31.025Z,27.12
2018-07-20T14:23:00.109Z,26.10
2018-07-20T14:25:29.197Z,27.40
2018-07-20T14:27:58.305Z,28.00
2018-07-20T14:30:27.413Z,27.07
2018-07-20T14:32:56.517Z,28.48
2018-07-20T14:35:25.726Z,27.95
2018-07-20T14:37:54.845Z,28.45
2018-07-20T14:40:23.961Z,27.62
2018-07-20T14:42:53.061Z,29.51
2018-07-20T14:45:22.241Z,28.78
2018-07-20T14:47:51.340Z,28.25
2018-07-20T14:50:20.433Z,28.85
2018-07-20T14:52:49.621Z,28.85
2018-07-20T14:55:18.730Z,27.66
2018-07-20T14:57:50.681Z,28.38
2018-07-20T15:00:19.871Z,29.43
2018-07-20T15:02:48.958Z,29.20
2018-07-20T15:05:18.065Z,28.86
2018-07-20T15:07:47.165Z,29.55
2018-07-20T15:10:16.261Z,29.63
2018-07-20T15:12:45.405Z,29.39
2018-07-20T15:15:14.537Z,28.90
2018-07-20T15:17:43.677Z,29.59
2018-07-20T15:20:12.809Z,28.42
2018-07-20T15:22:41.930Z,28.97
2018-07-20T15:25:11.037Z,29.12
2018-07-20T15:27:40.162Z,28.43
2018-07-20T15:30:09.266Z,31.46
2018-07-20T15:32:38.373Z,28.98
2018-07-20T15:35:07.469Z,28.48
2018-07-20T15:37:36.709Z,28.58
2018-07-20T15:40:05.841Z,30.06
2018-07-20T15:42:34.962Z,30.75
2018-07-20T15:45:04.226Z,29.66
2018-07-20T15:47:33.421Z,30.90
2018-07-20T15:50:02.406Z,29.62
2018-07-20T15:55:00.577Z,29.79
2018-07-20T15:57:30.007Z,30.02
2018-07-20T15:59:59.175Z,30.35
2018-07-20T16:02:28.221Z,29.92
2018-07-20T16:04:57.315Z,31.11
2018-07-20T16:07:26.433Z,31.10
2018-07-20T16:09:55.533Z,31.68
2018-07-20T16:12:24.657Z,32.39
2018-07-20T16:14:53.756Z,31.49
2018-07-20T16:17:22.895Z,32.00
2018-07-20T16:19:52.073Z,32.29
2018-07-20T16:22:21.158Z,31.94
2018-07-20T16:24:50.280Z,32.73
2018-07-20T16:27:19.361Z,32.06
2018-07-20T16:29:48.444Z,32.37
2018-07-20T16:32:17.612Z,31.92
2018-07-20T16:34:46.758Z,32.66
2018-07-20T16:37:15.878Z,32.63
2018-07-20T16:39:45.121Z,31.56
2018-07-20T16:42:14.253Z,31.96
2018-07-20T16:44:43.341Z,32.99
2018-07-20T16:47:12.545Z,31.98
2018-07-20T16:49:41.609Z,31.86
2018-07-20T16:52:10.729Z,33.39
2018-07-20T16:54:39.827Z,32.99
2018-07-20T16:57:09.217Z,34.12
2018-07-20T16:59:38.356Z,34.01
2018-07-20T17:02:07.505Z,34.49
2018-07-20T17:04:36.600Z,33.59
2018-07-20T17:07:05.882Z,36.95
2018-07-20T17:09:34.963Z,43.06
2018-07-20T17:12:04.066Z,44.89
2018-07-20T17:14:33.281Z,48.97
2018-07-20T17:17:02.391Z,55.40
2018-07-20T17:19:31.503Z,59.21
2018-07-20T17:22:00.649Z,61.11
2018-07-20T17:24:29.805Z,64.23
2018-07-20T17:26:58.913Z,64.28
2018-07-20T17:29:28.154Z,64.37
2018-07-20T17:31:57.261Z,65.69
2018-07-20T17:34:26.408Z,64.39
2018-07-20T17:36:55.496Z,66.16
2018-07-20T17:39:24.675Z,66.30
2018-07-20T17:41:54.357Z,62.38
2018-07-20T17:44:23.441Z,61.02
2018-07-20T17:46:52.558Z,62.58
2018-07-20T17:49:21.669Z,62.30
2018-07-20T17:51:50.831Z,61.86
2018-07-20T17:54:19.974Z,59.97
2018-07-20T17:56:49.116Z,62.35
2018-07-20T17:59:18.226Z,59.34
2018-07-20T18:01:47.317Z,61.37
2018-07-20T18:04:16.441Z,58.72
2018-07-20T18:06:45.536Z,61.76
2018-07-20T18:09:14.685Z,61.36
2018-07-20T18:11:43.789Z,63.09
2018-07-20T18:14:12.897Z,60.78
2018-07-20T18:16:42.352Z,63.74
2018-07-20T18:19:11.455Z,60.84
2018-07-20T18:21:40.562Z,60.93
2018-07-20T18:24:09.682Z,61.60
2018-07-20T18:26:38.777Z,60.08
2018-07-20T18:29:07.929Z,57.44
2018-07-20T18:31:37.102Z,57.91
2018-07-20T18:34:06.280Z,58.63
2018-07-20T18:36:35.406Z,57.45
2018-07-20T18:39:07.945Z,58.01
2018-07-20T18:41:37.497Z,59.69
2018-07-20T18:44:06.738Z,57.53
2018-07-20T18:46:36.122Z,59.01
2018-07-20T18:49:05.277Z,56.99
2018-07-20T18:51:34.417Z,61.09
2018-07-20T18:54:03.509Z,59.47
2018-07-20T18:56:32.598Z,58.62
2018-07-20T18:59:01.697Z,59.21
2018-07-20T19:01:30.836Z,60.58
2018-07-20T19:03:59.973Z,58.67
2018-07-20T19:06:29.541Z,58.91
2018-07-20T19:08:58.665Z,57.39
2018-07-20T19:11:27.813Z,57.87
2018-07-20T19:13:56.861Z,58.11
2018-07-20T19:16:25.957Z,58.64
2018-07-20T19:18:55.089Z,57.99
2018-07-20T19:21:26.166Z,55.74
2018-07-20T19:23:55.596Z,55.89
2018-07-20T19:26:24.637Z,56.46
2018-07-20T19:28:53.748Z,56.12
2018-07-20T19:31:22.941Z,55.89
2018-07-20T19:33:52.094Z,56.91
2018-07-20T19:36:21.185Z,57.26
2018-07-20T19:38:50.320Z,56.86
2018-07-20T19:41:19.441Z,58.41
2018-07-20T19:43:48.533Z,57.47
2018-07-20T19:46:17.650Z,57.54
2018-07-20T19:48:46.847Z,57.60
2018-07-20T19:51:15.956Z,58.74
2018-07-20T19:53:45.038Z,59.15
2018-07-20T19:56:14.169Z,59.81
2018-07-20T19:58:43.299Z,61.56
2018-07-20T20:01:12.409Z,61.73
2018-07-20T20:03:41.566Z,61.41
2018-07-20T20:06:10.713Z,62.93
2018-07-20T20:08:39.841Z,62.48
2018-07-20T20:11:09.186Z,63.05
2018-07-20T20:13:38.294Z,62.84
2018-07-20T20:16:07.411Z,62.68
2018-07-20T20:18:36.677Z,64.37
2018-07-20T20:21:05.937Z,63.60
2018-07-20T20:23:35.021Z,65.06
2018-07-20T20:26:04.140Z,64.67
2018-07-20T20:28:33.562Z,64.63
2018-07-20T20:34:00.597Z,65.45
2018-07-20T20:36:29.743Z,65.68
2018-07-20T20:38:59.123Z,64.79
2018-07-20T20:41:28.232Z,66.14
2018-07-20T20:43:57.472Z,65.47
2018-07-20T20:46:26.541Z,66.15
2018-07-20T20:48:55.781Z,65.96
2018-07-20T20:51:24.998Z,65.61
2018-07-20T20:53:54.126Z,65.87
2018-07-20T20:56:23.277Z,65.86
2018-07-20T20:58:52.420Z,66.97
2018-07-20T21:01:21.501Z,67.26
2018-07-20T21:03:50.621Z,66.65
2018-07-20T21:06:19.737Z,67.34
2018-07-20T21:08:48.863Z,67.50
2018-07-20T21:11:19.753Z,66.63
2018-07-20T21:13:48.908Z,65.70
2018-07-20T21:16:18.319Z,67.27
2018-07-20T21:18:47.585Z,66.32
2018-07-20T21:21:16.794Z,67.66
2018-07-20T21:23:45.966Z,67.51
2018-07-20T21:26:15.113Z,67.23
2018-07-20T21:28:44.240Z,66.57
2018-07-20T21:31:13.333Z,65.12
2018-07-20T21:33:43.281Z,67.08
2018-07-20T21:36:12.429Z,67.14
2018-07-20T21:38:41.596Z,67.23
2018-07-20T21:41:10.797Z,66.57
2018-07-20T21:43:39.920Z,66.00
2018-07-20T21:46:09.075Z,66.45
2018-07-20T21:48:38.212Z,65.56
2018-07-20T21:51:07.669Z,64.67
2018-07-20T21:53:36.801Z,64.28
2018-07-20T21:56:05.917Z,64.98
2018-07-20T21:58:35.034Z,64.29
2018-07-20T22:01:04.250Z,64.36
2018-07-20T22:03:33.329Z,64.14
2018-07-20T22:06:02.429Z,64.44
2018-07-20T22:08:31.518Z,64.04
2018-07-20T22:11:00.713Z,64.26
2018-07-20T22:13:29.834Z,65.19
2018-07-20T22:15:58.934Z,64.65
2018-07-20T22:18:28.022Z,64.18
2018-07-20T22:20:57.134Z,64.14
2018-07-20T22:23:26.277Z,65.03
2018-07-20T22:25:55.403Z,65.05
2018-07-20T22:28:24.533Z,64.52
2018-07-20T22:30:53.637Z,65.69
2018-07-20T22:33:22.748Z,65.43
2018-07-20T22:35:51.867Z,65.49
2018-07-20T22:38:20.988Z,65.43
2018-07-20T22:40:50.105Z,65.87
2018-07-20T22:43:19.225Z,65.62
2018-07-20T22:45:48.334Z,65.82
2018-07-20T22:48:17.447Z,66.24
2018-07-20T22:50:46.569Z,65.80
2018-07-20T22:53:15.645Z,65.78
2018-07-20T22:55:44.738Z,66.48
2018-07-20T22:58:13.857Z,66.59
2018-07-20T23:00:42.961Z,66.58
2018-07-20T23:03:12.105Z,67.29
2018-07-20T23:05:41.190Z,67.10
2018-07-20T23:08:10.286Z,66.72
2018-07-20T23:10:39.389Z,64.94
2018-07-20T23:13:08.491Z,66.13
2018-07-20T23:15:37.637Z,65.51
2018-07-20T23:18:07.010Z,64.52
2018-07-20T23:20:36.148Z,64.07
2018-07-20T23:23:05.269Z,63.13
2018-07-20T23:25:34.369Z,64.15
2018-07-20T23:28:03.534Z,64.24
2018-07-20T23:30:32.672Z,64.45
2018-07-20T23:33:01.741Z,63.17
2018-07-20T23:35:30.862Z,62.82
2018-07-20T23:37:59.969Z,62.71
2018-07-20T23:40:29.104Z,64.09
2018-07-20T23:42:58.213Z,63.14
2018-07-20T23:45:27.333Z,63.14
2018-07-20T23:47:56.458Z,63.64
2018-07-20T23:50:25.577Z,63.71
2018-07-20T23:52:54.702Z,63.46
2018-07-20T23:55:23.840Z,64.13
2018-07-20T23:57:53.006Z,62.80
